sensor_id;sensor_type;location;lat;lon;timestamp;temperature;humidity
6696;DHT22;3385;48.928;10.330;2023-04-01T00:00:52;8.10;99.90
6696;DHT22;3385;48.928;10.330;2023-04-01T00:03:19;8.10;99.90
6696;DHT22;3385;48.928;10.330;2023-04-01T00:09:07;8.00;99.90
6696;DHT22;3385;48.928;10.330;2023-04-01T00:11:33;7.90;99.90
6696;DHT22;3385;48.928;10.330;2023-04-01T00:13:58;8.00;99.90
6696;DHT22;3385;48.928;10.330;2023-04-01T00:16:24;8.10;99.90
6696;DHT22;3385;48.928;10.330;2023-04-01T00:18:50;8.10;99.90
6696;DHT22;3385;48.928;10.330;2023-04-01T00:21:17;8.00;99.90
6696;DHT22;3385;48.928;10.330;2023-04-01T00:23:43;7.90;99.90
6696;DHT22;3385;48.928;10.330;2023-04-01T00:26:09;7.80;99.90
6696;DHT22;3385;48.928;10.330;2023-04-01T00:28:35;7.80;99.90
6696;DHT22;3385;48.928;10.330;2023-04-01T00:31:06;7.70;99.90
6696;DHT22;3385;48.928;10.330;2023-04-01T00:33:32;7.70;99.90
6696;DHT22;3385;48.928;10.330;2023-04-01T00:36:12;7.70;99.90
6696;DHT22;3385;48.928;10.330;2023-04-01T00:38:39;4.20;99.90
6696;DHT22;3385;48.928;10.330;2023-04-01T00:41:05;7.50;99.90
6696;DHT22;3385;48.928;10.330;2023-04-01T00:43:31;7.70;99.90
6696;DHT22;3385;48.928;10.330;2023-04-01T00:45:57;7.60;99.90
6696;DHT22;3385;48.928;10.330;2023-04-01T00:48:26;7.90;99.90
6696;DHT22;3385;48.928;10.330;2023-04-01T00:51:17;8.00;99.90
6696;DHT22;3385;48.928;10.330;2023-04-01T00:53:48;8.00;99.90
6696;DHT22;3385;48.928;10.330;2023-04-01T00:56:24;8.10;99.90
6696;DHT22;3385;48.928;10.330;2023-04-01T00:59:30;8.20;99.90
6696;DHT22;3385;48.928;10.330;2023-04-01T01:01:48;8.10;99.90
6696;DHT22;3385;48.928;10.330;2023-04-01T01:04:29;8.10;99.90
6696;DHT22;3385;48.928;10.330;2023-04-01T01:34:09;8.10;99.90
6696;DHT22;3385;48.928;10.330;2023-04-01T01:36:38;8.00;99.90
6696;DHT22;3385;48.928;10.330;2023-04-01T01:39:06;8.00;99.90
6696;DHT22;3385;48.928;10.330;2023-04-01T01:41:34;7.90;99.90
6696;DHT22;3385;48.928;10.330;2023-04-01T01:44:03;7.90;99.90
6696;DHT22;3385;48.928;10.330;2023-04-01T01:46:31;8.00;99.90
6696;DHT22;3385;48.928;10.330;2023-04-01T01:48:57;7.80;99.90
6696;DHT22;3385;48.928;10.330;2023-04-01T01:51:26;7.90;99.90
6696;DHT22;3385;48.928;10.330;2023-04-01T01:53:53;7.90;99.90
6696;DHT22;3385;48.928;10.330;2023-04-01T01:56:22;7.90;99.90
6696;DHT22;3385;48.928;10.330;2023-04-01T01:59:03;7.80;99.90
6696;DHT22;3385;48.928;10.330;2023-04-01T02:01:32;7.70;99.90
6696;DHT22;3385;48.928;10.330;2023-04-01T02:04:00;8.10;99.90
6696;DHT22;3385;48.928;10.330;2023-04-01T02:06:28;10.80;99.90
6696;DHT22;3385;48.928;10.330;2023-04-01T02:09:00;7.70;99.90
6696;DHT22;3385;48.928;10.330;2023-04-01T02:11:50;7.70;99.90
6696;DHT22;3385;48.928;10.330;2023-04-01T02:16:56;7.50;99.90
6696;DHT22;3385;48.928;10.330;2023-04-01T02:19:38;7.40;99.90
6696;DHT22;3385;48.928;10.330;2023-04-01T02:22:07;7.30;99.90
6696;DHT22;3385;48.928;10.330;2023-04-01T02:24:35;7.30;99.90
6696;DHT22;3385;48.928;10.330;2023-04-01T02:27:03;7.40;99.90
6696;DHT22;3385;48.928;10.330;2023-04-01T02:29:29;7.20;99.90
6696;DHT22;3385;48.928;10.330;2023-04-01T02:31:55;7.10;99.90
6696;DHT22;3385;48.928;10.330;2023-04-01T02:34:22;7.10;99.90
6696;DHT22;3385;48.928;10.330;2023-04-01T02:36:50;7.10;99.90
6696;DHT22;3385;48.928;10.330;2023-04-01T02:39:16;6.90;99.90
6696;DHT22;3385;48.928;10.330;2023-04-01T02:41:44;6.90;99.90
6696;DHT22;3385;48.928;10.330;2023-04-01T02:44:11;7.00;99.90
6696;DHT22;3385;48.928;10.330;2023-04-01T02:46:37;7.00;99.90
6696;DHT22;3385;48.928;10.330;2023-04-01T02:49:03;7.00;99.90
6696;DHT22;3385;48.928;10.330;2023-04-01T02:51:29;7.20;99.90
6696;DHT22;3385;48.928;10.330;2023-04-01T02:53:55;7.00;99.90
6696;DHT22;3385;48.928;10.330;2023-04-01T02:56:21;7.10;99.90
6696;DHT22;3385;48.928;10.330;2023-04-01T02:58:47;7.00;99.90
6696;DHT22;3385;48.928;10.330;2023-04-01T03:01:13;6.70;99.90
6696;DHT22;3385;48.928;10.330;2023-04-01T03:03:38;7.30;99.90
6696;DHT22;3385;48.928;10.330;2023-04-01T03:06:08;6.60;99.90
6696;DHT22;3385;48.928;10.330;2023-04-01T03:08:34;6.60;99.90
6696;DHT22;3385;48.928;10.330;2023-04-01T03:11:00;6.60;99.90
6696;DHT22;3385;48.928;10.330;2023-04-01T03:13:26;6.60;99.90
6696;DHT22;3385;48.928;10.330;2023-04-01T03:15:52;6.50;99.90
6696;DHT22;3385;48.928;10.330;2023-04-01T03:18:18;6.70;99.90
6696;DHT22;3385;48.928;10.330;2023-04-01T03:20:44;6.50;99.90
6696;DHT22;3385;48.928;10.330;2023-04-01T03:23:10;6.60;99.90
6696;DHT22;3385;48.928;10.330;2023-04-01T03:25:35;6.80;99.90
6696;DHT22;3385;48.928;10.330;2023-04-01T03:28:01;6.70;99.90
6696;DHT22;3385;48.928;10.330;2023-04-01T03:30:27;6.70;99.90
6696;DHT22;3385;48.928;10.330;2023-04-01T03:32:55;6.70;99.90
6696;DHT22;3385;48.928;10.330;2023-04-01T03:35:21;6.60;99.90
6696;DHT22;3385;48.928;10.330;2023-04-01T03:37:47;7.10;99.90
6696;DHT22;3385;48.928;10.330;2023-04-01T03:40:12;6.40;99.90
6696;DHT22;3385;48.928;10.330;2023-04-01T03:42:38;6.60;99.90
6696;DHT22;3385;48.928;10.330;2023-04-01T03:45:05;6.50;99.90
6696;DHT22;3385;48.928;10.330;2023-04-01T03:47:30;6.60;99.90
6696;DHT22;3385;48.928;10.330;2023-04-01T03:49:56;6.70;99.90
6696;DHT22;3385;48.928;10.330;2023-04-01T03:52:22;6.60;99.90
6696;DHT22;3385;48.928;10.330;2023-04-01T03:54:47;6.60;99.90
6696;DHT22;3385;48.928;10.330;2023-04-01T03:57:13;6.50;99.90
6696;DHT22;3385;48.928;10.330;2023-04-01T03:59:39;6.60;99.90
6696;DHT22;3385;48.928;10.330;2023-04-01T04:02:05;6.50;99.90
6696;DHT22;3385;48.928;10.330;2023-04-01T04:04:31;6.60;99.90
6696;DHT22;3385;48.928;10.330;2023-04-01T04:06:57;6.70;99.90
6696;DHT22;3385;48.928;10.330;2023-04-01T04:09:23;6.70;99.90
6696;DHT22;3385;48.928;10.330;2023-04-01T04:11:49;7.60;99.90
6696;DHT22;3385;48.928;10.330;2023-04-01T04:14:15;6.80;99.90
6696;DHT22;3385;48.928;10.330;2023-04-01T04:16:41;6.80;99.90
6696;DHT22;3385;48.928;10.330;2023-04-01T04:19:06;6.90;99.90
6696;DHT22;3385;48.928;10.330;2023-04-01T04:21:32;7.00;99.90
6696;DHT22;3385;48.928;10.330;2023-04-01T04:23:59;7.00;99.90
6696;DHT22;3385;48.928;10.330;2023-04-01T04:26:25;6.90;99.90
6696;DHT22;3385;48.928;10.330;2023-04-01T04:28:53;6.00;99.90
6696;DHT22;3385;48.928;10.330;2023-04-01T04:31:20;6.80;99.90
6696;DHT22;3385;48.928;10.330;2023-04-01T04:33:46;6.70;99.90
6696;DHT22;3385;48.928;10.330;2023-04-01T04:36:13;6.70;99.90
6696;DHT22;3385;48.928;10.330;2023-04-01T04:38:38;6.70;99.90
6696;DHT22;3385;48.928;10.330;2023-04-01T04:41:09;6.50;99.90
6696;DHT22;3385;48.928;10.330;2023-04-01T04:43:35;6.90;99.90
6696;DHT22;3385;48.928;10.330;2023-04-01T04:46:05;6.50;99.90
6696;DHT22;3385;48.928;10.330;2023-04-01T04:48:31;6.60;99.90
6696;DHT22;3385;48.928;10.330;2023-04-01T04:50:57;6.70;99.90
6696;DHT22;3385;48.928;10.330;2023-04-01T04:53:23;6.90;99.90
6696;DHT22;3385;48.928;10.330;2023-04-01T04:55:50;6.60;99.90
6696;DHT22;3385;48.928;10.330;2023-04-01T04:58:16;7.00;99.90
6696;DHT22;3385;48.928;10.330;2023-04-01T05:00:42;6.60;99.90
6696;DHT22;3385;48.928;10.330;2023-04-01T05:03:08;6.70;99.90
6696;DHT22;3385;48.928;10.330;2023-04-01T05:05:34;6.70;99.90
6696;DHT22;3385;48.928;10.330;2023-04-01T05:08:00;6.80;99.90
6696;DHT22;3385;48.928;10.330;2023-04-01T05:10:25;6.80;99.90
6696;DHT22;3385;48.928;10.330;2023-04-01T05:12:52;7.00;99.90
6696;DHT22;3385;48.928;10.330;2023-04-01T05:15:18;7.00;99.90
6696;DHT22;3385;48.928;10.330;2023-04-01T05:17:44;7.10;99.90
6696;DHT22;3385;48.928;10.330;2023-04-01T05:20:12;7.30;99.90
6696;DHT22;3385;48.928;10.330;2023-04-01T05:22:38;7.10;99.90
6696;DHT22;3385;48.928;10.330;2023-04-01T05:25:04;7.20;99.90
6696;DHT22;3385;48.928;10.330;2023-04-01T05:27:30;7.30;99.90
6696;DHT22;3385;48.928;10.330;2023-04-01T05:29:55;7.30;99.90
6696;DHT22;3385;48.928;10.330;2023-04-01T05:32:21;7.10;99.90
6696;DHT22;3385;48.928;10.330;2023-04-01T05:34:53;7.40;99.90
6696;DHT22;3385;48.928;10.330;2023-04-01T05:37:19;7.40;99.90
6696;DHT22;3385;48.928;10.330;2023-04-01T05:39:45;7.40;99.90
6696;DHT22;3385;48.928;10.330;2023-04-01T05:42:11;7.50;99.90
6696;DHT22;3385;48.928;10.330;2023-04-01T05:44:37;7.60;99.90
6696;DHT22;3385;48.928;10.330;2023-04-01T05:47:04;7.40;99.90
6696;DHT22;3385;48.928;10.330;2023-04-01T05:49:30;7.70;99.90
6696;DHT22;3385;48.928;10.330;2023-04-01T05:51:56;7.70;99.90
6696;DHT22;3385;48.928;10.330;2023-04-01T05:54:22;7.80;99.90
6696;DHT22;3385;48.928;10.330;2023-04-01T05:56:48;8.00;99.90
6696;DHT22;3385;48.928;10.330;2023-04-01T05:59:14;7.80;99.90
6696;DHT22;3385;48.928;10.330;2023-04-01T06:01:40;8.00;99.90
6696;DHT22;3385;48.928;10.330;2023-04-01T06:04:06;7.90;99.90
6696;DHT22;3385;48.928;10.330;2023-04-01T06:06:32;8.10;99.90
6696;DHT22;3385;48.928;10.330;2023-04-01T06:09:07;8.10;99.90
6696;DHT22;3385;48.928;10.330;2023-04-01T06:14:19;8.10;99.90
6696;DHT22;3385;48.928;10.330;2023-04-01T06:17:26;8.50;99.90
6696;DHT22;3385;48.928;10.330;2023-04-01T06:25:04;8.60;99.90
6696;DHT22;3385;48.928;10.330;2023-04-01T06:30:41;8.70;99.90
6696;DHT22;3385;48.928;10.330;2023-04-01T06:44:59;8.60;99.90
6696;DHT22;3385;48.928;10.330;2023-04-01T06:55:46;8.90;99.90
6696;DHT22;3385;48.928;10.330;2023-04-01T06:58:29;8.80;99.90
6696;DHT22;3385;48.928;10.330;2023-04-01T07:01:04;8.60;99.90
6696;DHT22;3385;48.928;10.330;2023-04-01T07:03:41;8.60;99.90
6696;DHT22;3385;48.928;10.330;2023-04-01T07:06:27;9.30;99.90
6696;DHT22;3385;48.928;10.330;2023-04-01T07:08:55;9.00;99.90
6696;DHT22;3385;48.928;10.330;2023-04-01T07:11:30;8.80;99.90
6696;DHT22;3385;48.928;10.330;2023-04-01T07:14:02;8.90;99.90
6696;DHT22;3385;48.928;10.330;2023-04-01T07:16:32;8.90;99.90
6696;DHT22;3385;48.928;10.330;2023-04-01T07:22:33;9.00;99.90
6696;DHT22;3385;48.928;10.330;2023-04-01T07:24:51;8.50;99.90
6696;DHT22;3385;48.928;10.330;2023-04-01T07:27:18;9.20;99.90
6696;DHT22;3385;48.928;10.330;2023-04-01T07:29:44;9.10;99.90
6696;DHT22;3385;48.928;10.330;2023-04-01T07:53:43;9.10;99.90
6696;DHT22;3385;48.928;10.330;2023-04-01T07:56:24;8.90;99.90
6696;DHT22;3385;48.928;10.330;2023-04-01T08:04:43;8.80;99.90
6696;DHT22;3385;48.928;10.330;2023-04-01T08:07:26;8.80;99.90
6696;DHT22;3385;48.928;10.330;2023-04-01T08:15:26;8.60;99.90
6696;DHT22;3385;48.928;10.330;2023-04-01T08:20:47;8.50;99.90
6696;DHT22;3385;48.928;10.330;2023-04-01T08:23:21;8.50;99.90
6696;DHT22;3385;48.928;10.330;2023-04-01T08:26:01;8.30;99.90
6696;DHT22;3385;48.928;10.330;2023-04-01T08:31:23;8.00;99.90
6696;DHT22;3385;48.928;10.330;2023-04-01T08:33:53;7.90;99.90
6696;DHT22;3385;48.928;10.330;2023-04-01T08:36:32;7.90;99.90
6696;DHT22;3385;48.928;10.330;2023-04-01T08:39:08;7.80;99.90
6696;DHT22;3385;48.928;10.330;2023-04-01T08:44:36;7.80;99.90
6696;DHT22;3385;48.928;10.330;2023-04-01T08:55:59;8.00;99.90
6696;DHT22;3385;48.928;10.330;2023-04-01T09:07:27;8.20;99.90
6696;DHT22;3385;48.928;10.330;2023-04-01T09:30:07;8.10;99.90
6696;DHT22;3385;48.928;10.330;2023-04-01T09:36:02;8.00;99.90
6696;DHT22;3385;48.928;10.330;2023-04-01T09:46:58;8.00;99.90
6696;DHT22;3385;48.928;10.330;2023-04-01T09:49:33;8.10;99.90
6696;DHT22;3385;48.928;10.330;2023-04-01T10:00:36;8.70;99.90
6696;DHT22;3385;48.928;10.330;2023-04-01T10:20:25;8.40;99.90
6696;DHT22;3385;48.928;10.330;2023-04-01T10:31:36;8.40;99.90
6696;DHT22;3385;48.928;10.330;2023-04-01T10:34:29;8.80;99.90
6696;DHT22;3385;48.928;10.330;2023-04-01T10:51:21;8.10;99.90
6696;DHT22;3385;48.928;10.330;2023-04-01T11:13:08;8.90;99.90
6696;DHT22;3385;48.928;10.330;2023-04-01T11:15:47;9.00;99.90
6696;DHT22;3385;48.928;10.330;2023-04-01T11:38:45;8.50;99.90
6696;DHT22;3385;48.928;10.330;2023-04-01T11:43:54;8.30;99.90
6696;DHT22;3385;48.928;10.330;2023-04-01T12:08:32;8.60;99.90
6696;DHT22;3385;48.928;10.330;2023-04-01T12:11:23;8.60;99.90
6696;DHT22;3385;48.928;10.330;2023-04-01T12:19:51;8.80;99.90
6696;DHT22;3385;48.928;10.330;2023-04-01T12:23:03;8.70;99.90
6696;DHT22;3385;48.928;10.330;2023-04-01T12:28:54;9.10;99.90
6696;DHT22;3385;48.928;10.330;2023-04-01T12:42:17;9.60;99.90
6696;DHT22;3385;48.928;10.330;2023-04-01T12:53:11;9.00;99.90
6696;DHT22;3385;48.928;10.330;2023-04-01T12:55:44;9.30;99.90
6696;DHT22;3385;48.928;10.330;2023-04-01T13:03:43;9.10;99.90
6696;DHT22;3385;48.928;10.330;2023-04-01T13:09:35;8.80;99.90
6696;DHT22;3385;48.928;10.330;2023-04-01T13:15:05;9.60;99.90
6696;DHT22;3385;48.928;10.330;2023-04-01T13:23:43;9.10;99.90
6696;DHT22;3385;48.928;10.330;2023-04-01T13:28:52;9.20;99.90
6696;DHT22;3385;48.928;10.330;2023-04-01T13:34:14;8.80;99.90
6696;DHT22;3385;48.928;10.330;2023-04-01T13:42:49;8.90;99.90
6696;DHT22;3385;48.928;10.330;2023-04-01T13:54:45;9.50;99.90
6696;DHT22;3385;48.928;10.330;2023-04-01T14:13:08;9.80;99.90
6696;DHT22;3385;48.928;10.330;2023-04-01T14:30:12;10.20;99.90
6696;DHT22;3385;48.928;10.330;2023-04-01T14:32:37;10.00;99.90
6696;DHT22;3385;48.928;10.330;2023-04-01T14:35:25;9.90;99.90
6696;DHT22;3385;48.928;10.330;2023-04-01T14:40:56;9.40;99.90
6696;DHT22;3385;48.928;10.330;2023-04-01T14:46:50;9.80;99.90
6696;DHT22;3385;48.928;10.330;2023-04-01T14:49:42;10.20;99.90
6696;DHT22;3385;48.928;10.330;2023-04-01T14:54:48;9.80;99.90
6696;DHT22;3385;48.928;10.330;2023-04-01T14:59:59;10.10;99.90
6696;DHT22;3385;48.928;10.330;2023-04-01T15:13:52;9.60;99.90
6696;DHT22;3385;48.928;10.330;2023-04-01T15:16:20;9.40;99.90
6696;DHT22;3385;48.928;10.330;2023-04-01T15:22:08;9.10;99.90
6696;DHT22;3385;48.928;10.330;2023-04-01T15:24:47;9.30;99.90
6696;DHT22;3385;48.928;10.330;2023-04-01T15:32:46;10.30;99.90
6696;DHT22;3385;48.928;10.330;2023-04-01T15:35:34;10.20;99.90
6696;DHT22;3385;48.928;10.330;2023-04-01T15:38:27;10.10;99.90
6696;DHT22;3385;48.928;10.330;2023-04-01T15:43:48;9.30;99.90
6696;DHT22;3385;48.928;10.330;2023-04-01T15:46:43;9.10;99.90
6696;DHT22;3385;48.928;10.330;2023-04-01T16:03:16;9.10;99.90
6696;DHT22;3385;48.928;10.330;2023-04-01T16:08:52;8.90;99.90
6696;DHT22;3385;48.928;10.330;2023-04-01T16:26:07;8.30;99.90
6696;DHT22;3385;48.928;10.330;2023-04-01T16:28:58;8.30;99.90
6696;DHT22;3385;48.928;10.330;2023-04-01T16:31:33;8.70;99.90
6696;DHT22;3385;48.928;10.330;2023-04-01T16:34:26;8.30;99.90
6696;DHT22;3385;48.928;10.330;2023-04-01T16:37:08;8.20;99.90
6696;DHT22;3385;48.928;10.330;2023-04-01T16:39:47;8.20;99.90
6696;DHT22;3385;48.928;10.330;2023-04-01T16:42:38;8.20;99.90
6696;DHT22;3385;48.928;10.330;2023-04-01T16:45:42;7.90;99.90
6696;DHT22;3385;48.928;10.330;2023-04-01T16:48:12;8.20;99.90
6696;DHT22;3385;48.928;10.330;2023-04-01T16:50:44;8.50;99.90
6696;DHT22;3385;48.928;10.330;2023-04-01T16:53:16;8.10;99.90
6696;DHT22;3385;48.928;10.330;2023-04-01T16:56:04;8.00;99.90
6696;DHT22;3385;48.928;10.330;2023-04-01T16:58:36;8.00;99.90
6696;DHT22;3385;48.928;10.330;2023-04-01T17:01:24;7.90;99.90
6696;DHT22;3385;48.928;10.330;2023-04-01T17:04:07;7.90;99.90
6696;DHT22;3385;48.928;10.330;2023-04-01T17:12:58;7.90;99.90
6696;DHT22;3385;48.928;10.330;2023-04-01T17:21:17;7.80;99.90
6696;DHT22;3385;48.928;10.330;2023-04-01T17:26:46;7.80;99.90
6696;DHT22;3385;48.928;10.330;2023-04-01T17:35:09;7.70;99.90
6696;DHT22;3385;48.928;10.330;2023-04-01T17:37:53;7.70;99.90
6696;DHT22;3385;48.928;10.330;2023-04-01T17:40:44;7.70;99.90
6696;DHT22;3385;48.928;10.330;2023-04-01T17:49:00;7.70;99.90
6696;DHT22;3385;48.928;10.330;2023-04-01T17:51:43;7.70;99.90
6696;DHT22;3385;48.928;10.330;2023-04-01T17:54:42;7.70;99.90
6696;DHT22;3385;48.928;10.330;2023-04-01T18:00:02;7.50;99.90
6696;DHT22;3385;48.928;10.330;2023-04-01T18:10:32;6.40;99.90
6696;DHT22;3385;48.928;10.330;2023-04-01T18:19:31;7.40;99.90
6696;DHT22;3385;48.928;10.330;2023-04-01T18:22:23;7.30;99.90
6696;DHT22;3385;48.928;10.330;2023-04-01T18:25:05;7.50;99.90
6696;DHT22;3385;48.928;10.330;2023-04-01T18:27:44;7.50;99.90
6696;DHT22;3385;48.928;10.330;2023-04-01T18:30:28;7.50;99.90
6696;DHT22;3385;48.928;10.330;2023-04-01T18:33:23;7.60;99.90
6696;DHT22;3385;48.928;10.330;2023-04-01T18:36:33;7.40;99.90
6696;DHT22;3385;48.928;10.330;2023-04-01T18:39:23;7.50;99.90
6696;DHT22;3385;48.928;10.330;2023-04-01T18:42:14;7.40;99.90
6696;DHT22;3385;48.928;10.330;2023-04-01T18:44:56;7.50;99.90
6696;DHT22;3385;48.928;10.330;2023-04-01T18:50:26;7.50;99.90
6696;DHT22;3385;48.928;10.330;2023-04-01T18:53:09;7.70;99.90
6696;DHT22;3385;48.928;10.330;2023-04-01T18:55:42;7.50;99.90
6696;DHT22;3385;48.928;10.330;2023-04-01T19:09:20;7.50;99.90
6696;DHT22;3385;48.928;10.330;2023-04-01T19:14:58;7.50;99.90
6696;DHT22;3385;48.928;10.330;2023-04-01T19:20:38;7.40;99.90
6696;DHT22;3385;48.928;10.330;2023-04-01T19:23:47;7.40;99.90
6696;DHT22;3385;48.928;10.330;2023-04-01T19:26:27;7.30;99.90
6696;DHT22;3385;48.928;10.330;2023-04-01T19:34:26;7.00;99.90
6696;DHT22;3385;48.928;10.330;2023-04-01T19:37:19;7.30;99.90
6696;DHT22;3385;48.928;10.330;2023-04-01T19:40:18;7.20;99.90
6696;DHT22;3385;48.928;10.330;2023-04-01T19:45:57;7.00;99.90
6696;DHT22;3385;48.928;10.330;2023-04-01T19:51:09;6.80;99.90
6696;DHT22;3385;48.928;10.330;2023-04-01T19:56:23;6.80;99.90
6696;DHT22;3385;48.928;10.330;2023-04-01T19:59:44;6.40;99.90
6696;DHT22;3385;48.928;10.330;2023-04-01T20:04:36;6.80;99.90
6696;DHT22;3385;48.928;10.330;2023-04-01T20:12:21;6.70;99.90
6696;DHT22;3385;48.928;10.330;2023-04-01T20:14:57;6.90;99.90
6696;DHT22;3385;48.928;10.330;2023-04-01T20:17:44;6.80;99.90
6696;DHT22;3385;48.928;10.330;2023-04-01T20:27:51;6.90;99.90
6696;DHT22;3385;48.928;10.330;2023-04-01T20:38:42;6.80;99.90
6696;DHT22;3385;48.928;10.330;2023-04-01T20:50:19;6.80;99.90
6696;DHT22;3385;48.928;10.330;2023-04-01T21:15:19;7.10;99.90
6696;DHT22;3385;48.928;10.330;2023-04-01T21:39:47;7.10;99.90
6696;DHT22;3385;48.928;10.330;2023-04-01T21:42:26;7.10;99.90
6696;DHT22;3385;48.928;10.330;2023-04-01T21:45:11;7.00;99.90
6696;DHT22;3385;48.928;10.330;2023-04-01T21:53:38;7.10;99.90
6696;DHT22;3385;48.928;10.330;2023-04-01T21:56:43;7.30;99.90
6696;DHT22;3385;48.928;10.330;2023-04-01T21:59:29;7.00;99.90
6696;DHT22;3385;48.928;10.330;2023-04-01T22:07:55;6.80;99.90
6696;DHT22;3385;48.928;10.330;2023-04-01T22:10:43;6.90;99.90
6696;DHT22;3385;48.928;10.330;2023-04-01T22:13:36;6.90;99.90
6696;DHT22;3385;48.928;10.330;2023-04-01T22:22:08;6.80;99.90
6696;DHT22;3385;48.928;10.330;2023-04-01T22:24:51;6.90;99.90
6696;DHT22;3385;48.928;10.330;2023-04-01T22:27:43;6.80;99.90
6696;DHT22;3385;48.928;10.330;2023-04-01T22:30:36;6.70;99.90
6696;DHT22;3385;48.928;10.330;2023-04-01T22:33:10;6.70;99.90
6696;DHT22;3385;48.928;10.330;2023-04-01T22:35:49;6.60;99.90
6696;DHT22;3385;48.928;10.330;2023-04-01T22:43:43;6.60;99.90
6696;DHT22;3385;48.928;10.330;2023-04-01T22:46:19;6.60;99.90
6696;DHT22;3385;48.928;10.330;2023-04-01T22:49:02;6.60;99.90
6696;DHT22;3385;48.928;10.330;2023-04-01T22:51:48;6.60;99.90
6696;DHT22;3385;48.928;10.330;2023-04-01T22:56:53;6.50;99.90
6696;DHT22;3385;48.928;10.330;2023-04-01T23:00:06;6.40;99.90
6696;DHT22;3385;48.928;10.330;2023-04-01T23:02:30;6.50;99.90
6696;DHT22;3385;48.928;10.330;2023-04-01T23:05:00;6.50;99.90
6696;DHT22;3385;48.928;10.330;2023-04-01T23:07:52;6.50;99.90
6696;DHT22;3385;48.928;10.330;2023-04-01T23:10:52;7.20;99.90
6696;DHT22;3385;48.928;10.330;2023-04-01T23:13:28;6.70;99.90
6696;DHT22;3385;48.928;10.330;2023-04-01T23:15:57;6.60;99.90
6696;DHT22;3385;48.928;10.330;2023-04-01T23:21:29;6.80;99.90
6696;DHT22;3385;48.928;10.330;2023-04-01T23:24:00;6.70;99.90
6696;DHT22;3385;48.928;10.330;2023-04-01T23:26:36;7.00;99.90
6696;DHT22;3385;48.928;10.330;2023-04-01T23:29:07;6.80;99.90
6696;DHT22;3385;48.928;10.330;2023-04-01T23:31:43;6.70;99.90
6696;DHT22;3385;48.928;10.330;2023-04-01T23:36:55;6.70;99.90
6696;DHT22;3385;48.928;10.330;2023-04-01T23:39:38;6.80;99.90
6696;DHT22;3385;48.928;10.330;2023-04-01T23:42:31;7.00;99.90
6696;DHT22;3385;48.928;10.330;2023-04-01T23:45:04;7.00;99.90
6696;DHT22;3385;48.928;10.330;2023-04-01T23:47:32;5.80;99.90
6696;DHT22;3385;48.928;10.330;2023-04-01T23:50:01;6.90;99.90
6696;DHT22;3385;48.928;10.330;2023-04-01T23:52:36;6.90;99.90
6696;DHT22;3385;48.928;10.330;2023-04-01T23:57:37;6.90;99.90
